createdAt,value
2022-12-19T00:04:00.738Z,68.56
2022-12-19T00:09:32.215Z,68.65
2022-12-19T00:15:06.358Z,68.67
2022-12-19T00:20:37.382Z,68.41
2022-12-19T00:26:14.491Z,68.45
2022-12-19T00:31:45.884Z,68.91
2022-12-19T00:37:18.886Z,68.38
2022-12-19T00:42:53.520Z,68.64
2022-12-19T00:48:25.124Z,68.69
2022-12-19T00:53:57.893Z,68.94
2022-12-19T00:59:29.643Z,68.77
2022-12-19T01:05:00.711Z,69.07
2022-12-19T01:10:31.941Z,69.09
2022-12-19T01:16:05.265Z,69.28
2022-12-19T01:21:37.485Z,69.14
2022-12-19T01:27:08.753Z,69.38
2022-12-19T01:32:39.778Z,69.40
2022-12-19T01:38:19.286Z,69.17
2022-12-19T01:43:59.170Z,69.42
2022-12-19T01:49:34.502Z,69.50
2022-12-19T01:55:07.114Z,69.17
2022-12-19T02:00:38.638Z,69.61
2022-12-19T02:06:13.908Z,69.63
2022-12-19T02:11:48.681Z,69.48
2022-12-19T02:17:52.656Z,69.67
2022-12-19T02:23:33.825Z,69.58
2022-12-19T02:29:20.247Z,69.94
2022-12-19T02:35:24.834Z,70.02
2022-12-19T02:41:00.212Z,69.88
2022-12-19T02:46:33.596Z,69.98
2022-12-19T02:52:14.011Z,69.92
2022-12-19T02:58:06.176Z,70.18
2022-12-19T03:03:59.058Z,70.19
2022-12-19T03:09:56.566Z,69.81
2022-12-19T03:15:28.032Z,70.40
2022-12-19T03:21:21.302Z,70.14
2022-12-19T03:27:09.847Z,70.23
2022-12-19T03:32:43.984Z,70.08
2022-12-19T03:38:15.915Z,70.00
2022-12-19T03:43:47.115Z,70.50
2022-12-19T03:49:18.178Z,70.60
2022-12-19T03:54:59.624Z,70.21
2022-12-19T04:00:31.926Z,70.42
2022-12-19T04:06:04.382Z,70.04
2022-12-19T04:11:39.655Z,69.97
2022-12-19T04:17:27.483Z,70.17
2022-12-19T04:23:37.599Z,70.26
2022-12-19T04:29:09.227Z,69.87
2022-12-19T04:34:42.972Z,70.13
2022-12-19T04:40:14.953Z,70.34
2022-12-19T04:45:46.181Z,70.25
2022-12-19T04:51:17.869Z,70.44
2022-12-19T04:56:48.915Z,70.18
2022-12-19T05:02:20.216Z,70.02
2022-12-19T05:07:52.134Z,70.67
2022-12-19T05:13:23.446Z,70.65
2022-12-19T05:18:54.836Z,70.36
2022-12-19T05:24:25.824Z,70.40
2022-12-19T05:29:57.063Z,70.40
2022-12-19T05:35:28.392Z,70.42
2022-12-19T05:40:59.910Z,70.85
2022-12-19T05:46:31.250Z,70.77
2022-12-19T05:52:02.733Z,70.94
2022-12-19T05:57:34.349Z,71.05
2022-12-19T06:03:05.611Z,70.89
2022-12-19T06:08:36.924Z,70.35
2022-12-19T06:14:08.207Z,71.05
2022-12-19T06:19:39.596Z,70.61
2022-12-19T06:25:10.743Z,70.79
2022-12-19T06:30:44.983Z,70.81
2022-12-19T06:36:19.143Z,71.16
2022-12-19T06:42:09.278Z,71.07
2022-12-19T06:47:40.452Z,71.37
2022-12-19T06:53:11.733Z,71.20
2022-12-19T06:58:44.531Z,71.19
2022-12-19T07:04:19.562Z,71.44
2022-12-19T07:09:50.579Z,71.13
2022-12-19T07:15:22.250Z,71.10
2022-12-19T07:20:53.350Z,71.21
2022-12-19T07:26:24.598Z,71.15
2022-12-19T07:31:55.564Z,71.19
2022-12-19T07:37:26.554Z,71.51
2022-12-19T07:43:01.611Z,70.92
2022-12-19T07:48:32.966Z,71.02
2022-12-19T07:54:04.497Z,70.87
2022-12-19T07:59:38.935Z,71.06
2022-12-19T08:05:11.663Z,71.02
2022-12-19T08:10:43.510Z,71.12
2022-12-19T08:16:15.285Z,71.36
2022-12-19T08:21:46.762Z,71.37
2022-12-19T08:27:18.133Z,71.46
2022-12-19T08:32:49.521Z,71.64
2022-12-19T08:38:20.420Z,71.70
2022-12-19T08:43:53.445Z,71.46
2022-12-19T08:49:24.557Z,71.53
2022-12-19T08:54:55.918Z,71.77
2022-12-19T09:00:32.816Z,71.43
2022-12-19T09:06:12.047Z,71.63
2022-12-19T09:11:49.812Z,71.56
2022-12-19T09:17:21.172Z,72.22
2022-12-19T09:22:52.439Z,71.84
2022-12-19T09:28:27.905Z,72.13
2022-12-19T09:33:59.984Z,71.87
2022-12-19T09:39:31.384Z,72.21
2022-12-19T09:45:14.632Z,72.02
2022-12-19T09:51:09.435Z,72.22
2022-12-19T09:56:46.007Z,72.02
2022-12-19T10:02:31.791Z,72.57
2022-12-19T10:08:09.018Z,72.61
2022-12-19T10:13:49.452Z,72.20
2022-12-19T10:19:23.995Z,72.87
2022-12-19T10:25:16.312Z,72.72
2022-12-19T10:31:02.649Z,72.53
2022-12-19T10:37:27.245Z,72.64
2022-12-19T10:43:09.416Z,72.53
2022-12-19T10:48:42.614Z,73.36
2022-12-19T10:54:13.984Z,72.51
2022-12-19T11:00:21.874Z,72.95
2022-12-19T11:05:58.679Z,72.85
2022-12-19T11:14:35.302Z,73.33
2022-12-19T11:29:17.148Z,73.02
2022-12-19T11:30:08.860Z,73.47
2022-12-19T11:35:58.656Z,73.28
2022-12-19T11:41:39.320Z,73.30
2022-12-19T11:47:56.881Z,73.23
2022-12-19T11:53:35.187Z,73.41
2022-12-19T11:59:13.660Z,73.36
2022-12-19T12:05:02.635Z,73.11
2022-12-19T12:13:32.018Z,73.12
2022-12-19T12:27:37.346Z,73.51
2022-12-19T12:31:18.627Z,73.26
2022-12-19T12:32:05.397Z,73.07
2022-12-19T12:41:18.148Z,73.55
2022-12-19T12:46:50.530Z,73.22
2022-12-19T12:52:34.704Z,73.71
2022-12-19T12:58:10.634Z,73.40
2022-12-19T13:03:54.952Z,73.26
2022-12-19T13:09:30.988Z,73.54
2022-12-19T13:15:34.699Z,73.53
2022-12-19T13:21:08.534Z,73.54
2022-12-19T13:26:50.238Z,73.52
2022-12-19T13:32:22.687Z,73.67
2022-12-19T13:39:49.873Z,73.33
2022-12-19T13:44:06.332Z,74.02
2022-12-19T13:49:37.313Z,73.57
2022-12-19T13:55:14.833Z,73.99
2022-12-19T14:00:51.941Z,73.53
2022-12-19T14:06:30.279Z,73.83
2022-12-19T14:13:48.401Z,73.77
2022-12-19T14:17:55.103Z,73.87
2022-12-19T14:23:42.596Z,74.02
2022-12-19T14:29:45.466Z,74.34
2022-12-19T14:36:10.321Z,74.31
2022-12-19T14:41:47.277Z,74.01
2022-12-19T14:52:34.429Z,74.07
2022-12-19T14:54:46.832Z,73.83
2022-12-19T14:59:35.396Z,73.60
2022-12-19T15:05:11.186Z,73.72
2022-12-19T15:11:06.147Z,73.75
2022-12-19T15:16:35.148Z,74.30
2022-12-19T15:22:06.548Z,74.13
2022-12-19T15:27:37.738Z,74.01
2022-12-19T15:33:14.196Z,74.01
2022-12-19T15:38:45.994Z,73.89
2022-12-19T15:44:52.732Z,73.95
2022-12-19T15:50:26.205Z,74.32
2022-12-19T15:55:58.810Z,74.00
2022-12-19T16:01:32.491Z,74.09
2022-12-19T16:07:13.416Z,73.77
2022-12-19T16:12:51.153Z,73.63
2022-12-19T16:18:22.488Z,73.82
2022-12-19T16:23:54.829Z,73.99
2022-12-19T16:29:28.116Z,73.70
2022-12-19T16:34:59.496Z,74.06
2022-12-19T16:40:30.647Z,74.12
2022-12-19T16:46:05.913Z,74.02
2022-12-19T16:51:37.071Z,73.48
2022-12-19T16:57:19.132Z,73.67
2022-12-19T17:02:53.071Z,74.01
2022-12-19T17:08:25.137Z,73.91
2022-12-19T17:14:01.851Z,74.26
2022-12-19T17:19:37.369Z,74.09
2022-12-19T17:25:29.047Z,73.89
2022-12-19T17:31:03.891Z,74.02
2022-12-19T17:36:37.797Z,73.81
2022-12-19T17:42:23.987Z,73.91
2022-12-19T17:48:02.012Z,74.12
2022-12-19T17:53:33.817Z,74.28
2022-12-19T17:59:05.077Z,74.02
2022-12-19T18:04:36.090Z,74.16
2022-12-19T18:10:18.513Z,74.28
2022-12-19T18:15:50.475Z,73.95
2022-12-19T18:21:24.865Z,73.94
2022-12-19T18:26:56.147Z,74.21
2022-12-19T18:32:27.056Z,74.58
2022-12-19T18:38:01.099Z,74.20
2022-12-19T18:43:32.914Z,74.24
2022-12-19T18:49:04.761Z,74.21
2022-12-19T18:54:35.764Z,74.16
2022-12-19T19:00:09.071Z,74.07
2022-12-19T19:05:40.629Z,73.83
2022-12-19T19:11:12.201Z,74.03
2022-12-19T19:16:43.734Z,73.99
2022-12-19T19:22:15.063Z,74.07
2022-12-19T19:27:46.258Z,74.36
2022-12-19T19:33:20.829Z,73.92
2022-12-19T19:38:53.709Z,74.20
2022-12-19T19:44:25.136Z,74.40
2022-12-19T19:49:56.490Z,73.93
2022-12-19T19:55:28.329Z,74.24
2022-12-19T20:00:59.817Z,74.26
2022-12-19T20:06:31.531Z,74.66
2022-12-19T20:12:02.665Z,74.48
2022-12-19T20:17:34.347Z,74.47
2022-12-19T20:23:06.317Z,74.52
2022-12-19T20:28:41.109Z,74.30
2022-12-19T20:34:20.274Z,74.65
2022-12-19T20:39:53.037Z,74.52
2022-12-19T20:45:24.403Z,74.50
2022-12-19T20:51:00.018Z,74.63
2022-12-19T20:56:31.663Z,74.13
2022-12-19T21:02:03.060Z,74.77
2022-12-19T21:07:34.855Z,74.39
2022-12-19T21:13:05.805Z,74.33
2022-12-19T21:18:39.778Z,74.77
2022-12-19T21:24:10.796Z,74.86
2022-12-19T21:29:41.749Z,74.77
2022-12-19T21:35:12.773Z,75.18
2022-12-19T21:40:43.812Z,75.41
2022-12-19T21:46:16.364Z,75.03
2022-12-19T21:51:47.628Z,74.91
2022-12-19T21:57:18.745Z,74.87
2022-12-19T22:03:12.493Z,74.88
2022-12-19T22:08:41.275Z,74.68
2022-12-19T22:14:13.958Z,74.62
2022-12-19T22:19:45.344Z,74.72
2022-12-19T22:25:16.716Z,74.42
2022-12-19T22:30:47.846Z,74.52
2022-12-19T22:36:25.938Z,74.70
2022-12-19T22:41:59.349Z,74.46
2022-12-19T22:47:30.446Z,74.55
2022-12-19T22:53:01.752Z,74.38
2022-12-19T22:58:35.807Z,74.39
2022-12-19T23:04:07.794Z,74.18
2022-12-19T23:09:39.257Z,74.57
2022-12-19T23:15:10.639Z,74.46
2022-12-19T23:20:42.352Z,74.50
2022-12-19T23:26:16.330Z,74.34
2022-12-19T23:31:47.884Z,74.56
2022-12-19T23:37:18.988Z,74.65
2022-12-19T23:42:49.967Z,74.62
2022-12-19T23:48:28.774Z,74.49
2022-12-19T23:53:59.764Z,74.52
2022-12-19T23:59:31.333Z,74.39
